createdAt,value
2022-12-03T00:00:11.930Z,13.82
2022-12-03T00:02:38.603Z,14.15
2022-12-03T00:05:04.900Z,15.38
2022-12-03T00:07:30.743Z,14.38
2022-12-03T00:09:56.594Z,15.90
2022-12-03T00:12:22.415Z,14.65
2022-12-03T00:14:48.208Z,15.00
2022-12-03T00:17:13.988Z,16.40
2022-12-03T00:19:39.836Z,16.88
2022-12-03T00:22:05.622Z,16.27
2022-12-03T00:24:31.949Z,17.70
2022-12-03T00:26:57.831Z,16.40
2022-12-03T00:29:23.677Z,18.17
2022-12-03T00:31:49.507Z,17.92
2022-12-03T00:34:15.324Z,18.73
2022-12-03T00:36:41.152Z,18.13
2022-12-03T00:39:06.946Z,16.98
2022-12-03T00:41:32.722Z,19.45
2022-12-03T00:43:59.040Z,16.48
2022-12-03T00:46:25.054Z,19.75
2022-12-03T00:48:50.900Z,21.33
2022-12-03T00:51:16.708Z,22.58
2022-12-03T00:53:42.474Z,18.33
2022-12-03T00:56:09.728Z,19.30
2022-12-03T00:58:35.646Z,23.35
2022-12-03T01:01:01.654Z,20.15
2022-12-03T01:03:28.532Z,18.75
2022-12-03T01:05:54.350Z,20.63
2022-12-03T01:08:20.132Z,18.75
2022-12-03T01:10:45.914Z,20.70
2022-12-03T01:13:11.728Z,21.55
2022-12-03T01:15:37.569Z,22.75
2022-12-03T01:18:03.501Z,20.27
2022-12-03T01:20:29.374Z,19.48
2022-12-03T01:22:55.181Z,20.80
2022-12-03T01:25:21.000Z,20.02
2022-12-03T01:27:46.769Z,22.15
2022-12-03T01:30:13.209Z,22.08
2022-12-03T01:32:38.996Z,22.48
2022-12-03T01:35:05.285Z,22.88
2022-12-03T01:37:31.151Z,21.23
2022-12-03T01:39:56.993Z,20.30
2022-12-03T01:42:34.140Z,22.90
2022-12-03T01:45:00.899Z,22.83
2022-12-03T01:47:30.476Z,21.80
2022-12-03T01:50:04.224Z,22.73
2022-12-03T01:52:35.328Z,22.73
2022-12-03T01:55:05.306Z,21.17
2022-12-03T01:57:39.875Z,22.58
2022-12-03T02:00:10.158Z,23.77
2022-12-03T02:02:35.894Z,21.25
2022-12-03T02:05:06.689Z,24.75
2022-12-03T02:07:33.295Z,23.30
2022-12-03T02:10:01.578Z,22.40
2022-12-03T02:12:32.471Z,25.05
2022-12-03T02:14:58.867Z,25.23
2022-12-03T02:17:25.689Z,22.30
2022-12-03T02:19:51.962Z,23.15
2022-12-03T02:22:32.263Z,23.25
2022-12-03T02:25:35.407Z,21.50
2022-12-03T02:28:02.881Z,26.25
2022-12-03T02:30:30.229Z,25.08
2022-12-03T02:32:57.156Z,25.83
2022-12-03T02:35:26.591Z,25.52
2022-12-03T02:37:57.880Z,22.50
2022-12-03T02:40:26.774Z,22.40
2022-12-03T02:42:56.241Z,21.60
2022-12-03T02:45:30.210Z,25.15
2022-12-03T02:48:05.319Z,22.98
2022-12-03T02:50:34.233Z,24.08
2022-12-03T02:53:04.891Z,22.75
2022-12-03T02:55:37.178Z,25.13
2022-12-03T02:58:04.092Z,23.90
2022-12-03T03:00:31.280Z,22.25
2022-12-03T03:02:57.550Z,24.90
2022-12-03T03:05:24.185Z,22.17
2022-12-03T03:07:50.754Z,26.27
2022-12-03T03:10:21.461Z,23.23
2022-12-03T03:12:47.670Z,20.08
2022-12-03T03:15:14.010Z,22.65
2022-12-03T03:17:41.493Z,19.85
2022-12-03T03:20:09.109Z,21.65
2022-12-03T03:22:37.907Z,19.20
2022-12-03T03:25:06.555Z,20.17
2022-12-03T03:27:32.980Z,19.40
2022-12-03T03:29:59.234Z,18.15
2022-12-03T03:32:27.534Z,17.95
2022-12-03T03:34:54.140Z,18.95
2022-12-03T03:37:20.290Z,18.48
2022-12-03T03:39:46.160Z,17.90
2022-12-03T03:42:12.023Z,17.63
2022-12-03T03:44:38.172Z,18.10
2022-12-03T03:47:04.216Z,17.02
2022-12-03T03:49:30.096Z,16.90
2022-12-03T03:51:55.935Z,15.25
2022-12-03T03:54:22.379Z,15.55
2022-12-03T03:56:48.377Z,16.27
2022-12-03T03:59:14.825Z,16.35
2022-12-03T04:01:41.097Z,17.58
2022-12-03T04:04:21.818Z,16.83
2022-12-03T04:06:48.065Z,16.98
2022-12-03T04:09:13.964Z,16.90
2022-12-03T04:11:58.124Z,19.40
2022-12-03T04:14:23.938Z,18.20
2022-12-03T04:16:49.755Z,16.80
2022-12-03T04:19:15.588Z,15.90
2022-12-03T04:22:00.093Z,17.15
2022-12-03T04:24:26.034Z,14.73
2022-12-03T04:27:10.521Z,16.42
2022-12-03T04:29:36.459Z,14.05
2022-12-03T04:32:20.984Z,15.93
2022-12-03T04:35:05.327Z,18.30
2022-12-03T04:37:31.242Z,16.02
2022-12-03T04:39:57.125Z,15.18
2022-12-03T04:42:22.865Z,15.20
2022-12-03T04:44:49.501Z,15.40
2022-12-03T04:47:20.158Z,16.58
2022-12-03T04:49:48.704Z,17.10
2022-12-03T04:52:17.172Z,14.15
2022-12-03T04:54:43.304Z,15.45
2022-12-03T04:57:09.720Z,16.65
2022-12-03T04:59:36.189Z,15.55
2022-12-03T05:02:02.694Z,16.17
2022-12-03T05:04:28.614Z,14.98
2022-12-03T05:06:54.461Z,16.33
2022-12-03T05:09:20.363Z,14.50
2022-12-03T05:11:46.150Z,15.70
2022-12-03T05:14:12.087Z,17.98
2022-12-03T05:16:38.347Z,18.23
2022-12-03T05:19:05.604Z,16.23
2022-12-03T05:21:31.552Z,16.70
2022-12-03T05:23:57.660Z,16.63
2022-12-03T05:26:23.547Z,17.40
2022-12-03T05:28:49.491Z,16.67
2022-12-03T05:31:15.884Z,18.55
2022-12-03T05:33:44.357Z,15.93
2022-12-03T05:36:10.802Z,16.17
2022-12-03T05:38:36.614Z,16.40
2022-12-03T05:41:22.704Z,16.67
2022-12-03T05:43:48.827Z,17.35
2022-12-03T05:46:14.640Z,17.40
2022-12-03T05:48:40.421Z,17.60
2022-12-03T05:51:06.218Z,16.58
2022-12-03T05:53:32.016Z,17.45
2022-12-03T05:55:57.793Z,19.08
2022-12-03T05:58:23.561Z,15.50
2022-12-03T06:00:49.325Z,17.45
2022-12-03T06:03:15.293Z,16.70
2022-12-03T06:05:41.162Z,16.17
2022-12-03T06:08:06.974Z,16.38
2022-12-03T06:10:32.801Z,17.00
2022-12-03T06:12:58.685Z,16.75
2022-12-03T06:15:24.412Z,16.95
2022-12-03T06:17:50.914Z,18.88
2022-12-03T06:20:18.611Z,18.80
2022-12-03T06:22:44.949Z,14.82
2022-12-03T06:25:11.831Z,17.95
2022-12-03T06:27:38.776Z,17.65
2022-12-03T06:30:05.536Z,18.02
2022-12-03T06:32:31.318Z,16.63
2022-12-03T06:34:57.058Z,16.00
2022-12-03T06:37:22.793Z,14.25
2022-12-03T06:39:48.610Z,17.20
2022-12-03T06:42:14.448Z,17.35
2022-12-03T06:44:40.442Z,17.05
2022-12-03T06:47:06.219Z,16.63
2022-12-03T06:49:32.260Z,17.13
2022-12-03T06:51:58.062Z,17.50
2022-12-03T06:54:23.809Z,17.73
2022-12-03T06:56:49.587Z,16.55
2022-12-03T06:59:15.347Z,16.35
2022-12-03T07:01:41.248Z,14.95
2022-12-03T07:04:07.083Z,15.30
2022-12-03T07:06:32.867Z,18.30
2022-12-03T07:08:58.717Z,17.75
2022-12-03T07:11:30.444Z,16.60
2022-12-03T07:14:01.571Z,15.80
2022-12-03T07:16:30.736Z,15.90
2022-12-03T07:18:56.575Z,16.98
2022-12-03T07:21:26.679Z,16.75
2022-12-03T07:23:52.459Z,17.95
2022-12-03T07:26:18.539Z,15.80
2022-12-03T07:28:44.384Z,16.80
2022-12-03T07:31:10.248Z,18.77
2022-12-03T07:33:36.031Z,18.10
2022-12-03T07:36:01.876Z,16.38
2022-12-03T07:38:27.668Z,15.43
2022-12-03T07:40:53.423Z,16.80
2022-12-03T07:43:19.212Z,17.35
2022-12-03T07:45:45.020Z,18.20
2022-12-03T07:48:10.743Z,18.00
2022-12-03T07:50:36.532Z,19.30
2022-12-03T07:53:02.302Z,20.33
2022-12-03T07:55:28.115Z,16.48
2022-12-03T07:57:53.884Z,18.80
2022-12-03T08:00:20.216Z,16.48
2022-12-03T08:02:46.112Z,19.98
2022-12-03T08:05:12.363Z,18.40
2022-12-03T08:07:38.240Z,20.73
2022-12-03T08:10:06.092Z,20.08
2022-12-03T08:12:41.010Z,17.75
2022-12-03T08:15:15.732Z,20.08
2022-12-03T08:17:42.884Z,19.90
2022-12-03T08:20:17.275Z,19.38
2022-12-03T08:22:45.786Z,18.70
2022-12-03T08:25:26.440Z,19.02
2022-12-03T08:27:56.196Z,18.88
2022-12-03T08:30:22.416Z,19.95
2022-12-03T08:32:48.681Z,20.17
2022-12-03T08:35:23.009Z,18.05
2022-12-03T08:37:59.234Z,19.88
2022-12-03T08:40:38.217Z,20.73
2022-12-03T08:43:22.697Z,21.63
2022-12-03T08:45:50.765Z,22.55
2022-12-03T08:48:31.843Z,22.70
2022-12-03T08:51:01.123Z,24.02
2022-12-03T08:53:35.697Z,21.20
2022-12-03T08:56:19.032Z,20.63
2022-12-03T08:58:47.512Z,22.48
2022-12-03T09:01:13.326Z,24.52
2022-12-03T09:03:48.193Z,25.08
2022-12-03T09:06:14.091Z,25.88
2022-12-03T09:08:39.895Z,26.92
2022-12-03T09:11:05.716Z,24.58
2022-12-03T09:13:31.532Z,26.23
2022-12-03T09:15:57.302Z,24.17
2022-12-03T09:18:23.306Z,30.75
2022-12-03T09:20:49.489Z,24.48
2022-12-03T09:23:15.279Z,25.10
2022-12-03T09:25:41.079Z,26.95
2022-12-03T09:28:07.537Z,24.10
2022-12-03T09:30:33.421Z,27.05
2022-12-03T09:32:59.473Z,27.20
2022-12-03T09:35:28.230Z,25.52
2022-12-03T09:37:53.997Z,25.38
2022-12-03T09:40:20.364Z,25.85
2022-12-03T09:42:46.737Z,26.23
2022-12-03T09:45:14.906Z,29.02
2022-12-03T09:47:44.979Z,30.65
2022-12-03T09:50:14.558Z,27.52
2022-12-03T09:52:40.327Z,30.48
2022-12-03T09:55:27.455Z,27.88
2022-12-03T09:57:54.579Z,30.30
2022-12-03T10:00:23.963Z,26.73
2022-12-03T10:02:53.026Z,27.33
2022-12-03T10:05:20.648Z,30.23
2022-12-03T10:07:47.850Z,28.45
2022-12-03T10:10:17.292Z,30.45
2022-12-03T10:12:43.388Z,27.88
2022-12-03T10:15:22.096Z,29.98
2022-12-03T10:17:50.586Z,26.00
2022-12-03T10:20:18.280Z,27.50
2022-12-03T10:22:44.483Z,26.77
2022-12-03T10:25:13.468Z,27.55
2022-12-03T10:27:40.368Z,26.85
2022-12-03T10:30:19.082Z,29.77
2022-12-03T10:32:50.109Z,27.75
2022-12-03T10:35:22.674Z,30.45
2022-12-03T10:38:04.629Z,29.20
2022-12-03T10:40:33.500Z,28.67
2022-12-03T10:43:17.385Z,24.23
2022-12-03T10:46:03.535Z,26.88
2022-12-03T10:48:30.118Z,27.67
2022-12-03T10:51:06.337Z,28.10
2022-12-03T10:53:35.393Z,27.38
2022-12-03T10:56:04.355Z,28.02
2022-12-03T10:58:34.655Z,33.90
2022-12-03T11:01:05.490Z,30.80
2022-12-03T11:03:35.652Z,32.92
2022-12-03T11:06:02.444Z,30.33
2022-12-03T11:08:34.637Z,31.50
2022-12-03T11:11:03.396Z,29.48
2022-12-03T11:13:31.821Z,33.47
2022-12-03T11:16:02.112Z,33.35
2022-12-03T11:18:37.153Z,31.73
2022-12-03T11:21:10.306Z,31.00
2022-12-03T11:23:44.831Z,29.42
2022-12-03T11:26:28.637Z,26.35
2022-12-03T11:28:56.226Z,26.65
2022-12-03T11:31:37.149Z,26.90
2022-12-03T11:34:18.182Z,27.45
2022-12-03T11:37:08.906Z,27.10
2022-12-03T11:39:55.928Z,26.85
2022-12-03T11:42:27.772Z,26.60
2022-12-03T11:45:05.686Z,28.00
2022-12-03T11:48:11.523Z,30.67
2022-12-03T11:50:48.842Z,28.42
2022-12-03T11:53:26.478Z,29.65
2022-12-03T11:56:18.047Z,26.85
2022-12-03T11:58:45.927Z,28.63
2022-12-03T12:01:13.287Z,27.90
2022-12-03T12:03:50.081Z,29.75
2022-12-03T12:06:19.147Z,29.05
2022-12-03T12:08:51.076Z,29.17
2022-12-03T12:11:30.134Z,27.23
2022-12-03T12:13:58.272Z,28.30
2022-12-03T12:16:42.738Z,27.73
2022-12-03T12:19:26.836Z,29.80
2022-12-03T12:21:52.996Z,29.80
2022-12-03T12:24:39.416Z,28.67
2022-12-03T12:27:05.886Z,28.08
2022-12-03T12:29:32.207Z,28.35
2022-12-03T12:32:10.488Z,28.60
2022-12-03T12:34:40.736Z,25.52
2022-12-03T12:37:11.838Z,29.67
2022-12-03T12:39:38.218Z,25.67
2022-12-03T12:42:33.162Z,27.95
2022-12-03T12:45:20.438Z,27.80
2022-12-03T12:48:09.071Z,29.13
2022-12-03T12:50:38.557Z,29.52
2022-12-03T12:53:10.382Z,27.80
2022-12-03T12:55:40.142Z,28.65
2022-12-03T12:58:15.604Z,33.17
2022-12-03T13:00:42.124Z,28.02
2022-12-03T13:03:10.876Z,29.27
2022-12-03T13:05:46.207Z,32.83
2022-12-03T13:08:39.145Z,27.63
2022-12-03T13:11:12.038Z,28.63
2022-12-03T13:13:44.120Z,26.70
2022-12-03T13:16:25.734Z,29.25
2022-12-03T13:18:56.843Z,32.85
2022-12-03T13:21:43.377Z,29.98
2022-12-03T13:24:38.802Z,28.48
2022-12-03T13:27:31.929Z,28.20
2022-12-03T13:30:17.571Z,33.38
2022-12-03T13:32:43.660Z,28.40
2022-12-03T13:35:09.426Z,29.95
2022-12-03T13:37:36.847Z,28.80
2022-12-03T13:40:21.970Z,33.47
2022-12-03T13:42:47.927Z,30.93
2022-12-03T13:45:13.891Z,30.00
2022-12-03T13:47:41.359Z,34.33
2022-12-03T13:50:20.805Z,33.05
2022-12-03T13:52:47.199Z,29.48
2022-12-03T13:55:30.480Z,31.65
2022-12-03T13:57:56.990Z,28.08
2022-12-03T14:00:23.142Z,29.23
2022-12-03T14:02:49.246Z,27.88
2022-12-03T14:05:15.138Z,28.20
2022-12-03T14:07:41.837Z,28.75
2022-12-03T14:10:10.642Z,30.60
2022-12-03T14:12:36.487Z,30.95
2022-12-03T14:15:04.443Z,30.60
2022-12-03T14:17:31.310Z,29.75
2022-12-03T14:20:01.040Z,29.67
2022-12-03T14:22:27.640Z,30.23
2022-12-03T14:24:53.794Z,27.02
2022-12-03T14:27:20.473Z,29.13
2022-12-03T14:29:46.280Z,34.83
2022-12-03T14:32:12.385Z,31.27
2022-12-03T14:34:38.232Z,29.80
2022-12-03T14:37:04.242Z,33.10
2022-12-03T14:39:30.248Z,31.05
2022-12-03T14:42:14.145Z,32.15
2022-12-03T14:44:50.409Z,30.02
2022-12-03T14:47:19.288Z,30.80
2022-12-03T14:49:45.604Z,31.10
2022-12-03T14:52:12.743Z,31.63
2022-12-03T14:54:41.432Z,33.45
2022-12-03T14:57:07.968Z,32.28
2022-12-03T14:59:33.930Z,32.05
2022-12-03T15:01:59.888Z,31.23
2022-12-03T15:04:25.817Z,31.70
2022-12-03T15:06:51.604Z,35.28
2022-12-03T15:09:17.445Z,31.40
2022-12-03T15:11:46.355Z,31.13
2022-12-03T15:14:12.627Z,37.85
2022-12-03T15:16:38.793Z,31.45
2022-12-03T15:19:04.607Z,34.80
2022-12-03T15:21:32.040Z,35.10
2022-12-03T15:23:59.073Z,30.08
2022-12-03T15:26:24.981Z,31.05
2022-12-03T15:28:50.780Z,32.65
2022-12-03T15:31:16.611Z,33.70
2022-12-03T15:33:42.442Z,34.60
2022-12-03T15:36:08.366Z,32.22
2022-12-03T15:38:34.207Z,33.85
2022-12-03T15:41:19.938Z,34.33
2022-12-03T15:43:52.435Z,33.30
2022-12-03T15:46:19.244Z,32.08
2022-12-03T15:48:46.017Z,41.45
2022-12-03T15:51:12.033Z,31.95
2022-12-03T15:53:38.725Z,33.20
2022-12-03T15:56:04.786Z,35.28
2022-12-03T15:58:30.605Z,34.05
2022-12-03T16:00:56.432Z,34.63
2022-12-03T16:03:22.615Z,31.63
2022-12-03T16:05:48.416Z,34.72
2022-12-03T16:08:14.236Z,33.50
2022-12-03T16:10:40.067Z,30.83
2022-12-03T16:13:05.870Z,33.05
2022-12-03T16:15:31.688Z,32.92
2022-12-03T16:17:57.530Z,30.98
2022-12-03T16:20:23.351Z,35.03
2022-12-03T16:22:49.142Z,37.08
2022-12-03T16:25:15.031Z,33.72
2022-12-03T16:27:40.917Z,36.17
2022-12-03T16:30:07.488Z,34.92
2022-12-03T16:32:33.255Z,38.05
2022-12-03T16:34:59.060Z,34.88
2022-12-03T16:37:24.822Z,31.23
2022-12-03T16:39:50.620Z,33.33
2022-12-03T16:42:17.688Z,36.85
2022-12-03T16:45:04.145Z,33.30
2022-12-03T16:47:34.162Z,33.95
2022-12-03T16:50:05.075Z,39.67
2022-12-03T16:52:30.939Z,33.28
2022-12-03T16:54:56.938Z,33.55
2022-12-03T16:57:22.724Z,33.97
2022-12-03T16:59:48.508Z,39.08
2022-12-03T17:02:14.512Z,36.60
2022-12-03T17:04:40.366Z,35.88
2022-12-03T17:07:06.142Z,35.97
2022-12-03T17:09:32.078Z,35.90
2022-12-03T17:11:58.075Z,34.42
2022-12-03T17:14:27.299Z,43.90
2022-12-03T17:16:55.754Z,35.58
2022-12-03T17:19:21.561Z,37.28
2022-12-03T17:21:47.384Z,34.38
2022-12-03T17:24:13.164Z,36.60
2022-12-03T17:26:41.197Z,36.67
2022-12-03T17:29:07.026Z,37.38
2022-12-03T17:31:36.982Z,39.03
2022-12-03T17:34:05.856Z,35.63
2022-12-03T17:36:31.683Z,36.15
2022-12-03T17:38:57.460Z,39.15
2022-12-03T17:41:25.430Z,34.15
2022-12-03T17:43:53.094Z,33.47
2022-12-03T17:46:19.463Z,39.92
2022-12-03T17:48:45.443Z,35.78
2022-12-03T17:51:11.217Z,36.72
2022-12-03T17:53:36.982Z,36.35
2022-12-03T17:56:02.894Z,32.85
2022-12-03T17:58:28.711Z,43.00
2022-12-03T18:01:00.294Z,35.60
2022-12-03T18:03:28.264Z,40.80
2022-12-03T18:05:54.617Z,42.58
2022-12-03T18:08:20.572Z,37.53
2022-12-03T18:10:46.490Z,36.95
2022-12-03T18:13:12.236Z,37.90
2022-12-03T18:15:38.255Z,36.95
2022-12-03T18:18:04.076Z,39.20
2022-12-03T18:20:30.128Z,36.55
2022-12-03T18:22:58.574Z,34.28
2022-12-03T18:25:25.016Z,35.75
2022-12-03T18:27:50.867Z,36.33
2022-12-03T18:30:16.786Z,45.83
2022-12-03T18:32:42.741Z,34.33
2022-12-03T18:35:08.737Z,36.92
2022-12-03T18:37:34.753Z,37.72
2022-12-03T18:40:00.833Z,38.63
2022-12-03T18:42:26.682Z,35.47
2022-12-03T18:44:54.527Z,34.15
2022-12-03T18:47:28.182Z,37.67
2022-12-03T18:49:55.128Z,36.58
2022-12-03T18:52:22.689Z,34.38
2022-12-03T18:54:48.718Z,36.90
2022-12-03T18:57:14.828Z,38.30
2022-12-03T18:59:40.763Z,34.63
2022-12-03T19:02:09.942Z,35.72
2022-12-03T19:04:35.770Z,35.28
2022-12-03T19:07:03.030Z,36.78
2022-12-03T19:09:28.834Z,38.20
2022-12-03T19:11:54.606Z,33.85
2022-12-03T19:14:20.365Z,36.97
2022-12-03T19:16:46.334Z,38.03
2022-12-03T19:19:12.431Z,37.80
2022-12-03T19:21:38.720Z,35.53
2022-12-03T19:24:23.957Z,37.00
2022-12-03T19:26:53.891Z,38.53
2022-12-03T19:29:21.260Z,35.97
2022-12-03T19:31:48.932Z,36.88
2022-12-03T19:34:15.287Z,38.70
2022-12-03T19:36:41.032Z,34.80
2022-12-03T19:39:06.887Z,35.63
2022-12-03T19:41:32.705Z,37.00
2022-12-03T19:43:58.810Z,40.63
2022-12-03T19:46:28.189Z,38.60
2022-12-03T19:48:54.276Z,40.58
2022-12-03T19:51:34.277Z,36.58
2022-12-03T19:54:02.326Z,35.67
2022-12-03T19:56:29.526Z,39.03
2022-12-03T19:58:55.792Z,35.25
2022-12-03T20:01:24.911Z,34.80
2022-12-03T20:03:53.259Z,33.17
2022-12-03T20:06:23.379Z,35.55
2022-12-03T20:08:50.307Z,31.88
2022-12-03T20:11:21.626Z,38.28
2022-12-03T20:13:51.479Z,37.17
2022-12-03T20:16:17.413Z,36.25
2022-12-03T20:18:45.424Z,40.63
2022-12-03T20:21:13.696Z,37.78
2022-12-03T20:23:40.181Z,34.90
2022-12-03T20:26:08.025Z,32.72
2022-12-03T20:28:34.105Z,36.58
2022-12-03T20:31:01.877Z,36.78
2022-12-03T20:33:27.973Z,37.70
2022-12-03T20:35:55.396Z,39.38
2022-12-03T20:38:22.709Z,35.67
2022-12-03T20:40:49.110Z,33.63
2022-12-03T20:43:15.020Z,36.30
2022-12-03T20:45:41.027Z,36.88
2022-12-03T20:48:07.186Z,34.35
2022-12-03T20:50:33.044Z,33.13
2022-12-03T20:53:23.030Z,36.30
2022-12-03T20:55:44.580Z,32.88
2022-12-03T20:58:10.374Z,36.97
2022-12-03T21:00:36.163Z,33.58
2022-12-03T21:03:02.033Z,33.33
2022-12-03T21:05:27.810Z,35.35
2022-12-03T21:07:53.981Z,32.88
2022-12-03T21:10:44.284Z,34.78
2022-12-03T21:13:15.327Z,28.80
2022-12-03T21:15:42.298Z,32.17
2022-12-03T21:18:10.824Z,33.03
2022-12-03T21:20:45.869Z,31.15
2022-12-03T21:23:13.278Z,35.15
2022-12-03T21:25:40.232Z,32.97
2022-12-03T21:28:08.476Z,31.00
2022-12-03T21:30:37.691Z,30.77
2022-12-03T21:33:03.929Z,28.65
2022-12-03T21:35:29.921Z,26.50
2022-12-03T21:37:55.856Z,29.45
2022-12-03T21:40:21.729Z,28.90
2022-12-03T21:42:47.571Z,26.17
2022-12-03T21:45:14.103Z,28.88
2022-12-03T21:47:40.226Z,27.80
2022-12-03T21:50:08.334Z,27.77
2022-12-03T21:52:34.835Z,24.98
2022-12-03T21:55:00.917Z,25.67
2022-12-03T21:57:26.826Z,27.90
2022-12-03T21:59:54.311Z,27.27
2022-12-03T22:02:21.240Z,25.60
2022-12-03T22:04:50.327Z,27.73
2022-12-03T22:07:16.764Z,25.10
2022-12-03T22:09:42.530Z,27.45
2022-12-03T22:12:08.286Z,28.80
2022-12-03T22:14:34.106Z,29.23
2022-12-03T22:16:59.877Z,25.73
2022-12-03T22:19:25.828Z,28.92
2022-12-03T22:21:51.659Z,28.80
2022-12-03T22:24:18.620Z,26.67
2022-12-03T22:26:44.853Z,29.02
2022-12-03T22:29:11.409Z,26.08
2022-12-03T22:31:37.609Z,25.55
2022-12-03T22:34:04.498Z,28.63
2022-12-03T22:36:30.392Z,29.05
2022-12-03T22:38:56.339Z,25.80
2022-12-03T22:41:22.162Z,30.70
2022-12-03T22:43:48.881Z,29.42
2022-12-03T22:46:15.793Z,31.35
2022-12-03T22:48:43.125Z,25.42
2022-12-03T22:51:18.399Z,25.80
2022-12-03T22:53:44.455Z,30.00
2022-12-03T22:56:10.331Z,24.70
2022-12-03T22:58:37.913Z,25.65
2022-12-03T23:01:04.271Z,27.48
2022-12-03T23:03:30.245Z,25.90
2022-12-03T23:05:56.230Z,27.20
2022-12-03T23:08:22.225Z,27.15
2022-12-03T23:10:50.999Z,27.63
2022-12-03T23:13:18.176Z,24.27
2022-12-03T23:15:45.831Z,24.95
2022-12-03T23:18:11.834Z,26.55
2022-12-03T23:20:49.755Z,25.85
2022-12-03T23:23:17.489Z,27.02
2022-12-03T23:25:46.414Z,24.60
2022-12-03T23:28:12.279Z,24.77
2022-12-03T23:30:38.796Z,29.52
2022-12-03T23:33:05.660Z,23.35
2022-12-03T23:35:33.120Z,24.00
2022-12-03T23:37:58.920Z,25.20
2022-12-03T23:40:24.750Z,23.33
2022-12-03T23:42:50.496Z,27.48
2022-12-03T23:45:16.314Z,24.80
2022-12-03T23:47:42.064Z,26.10
2022-12-03T23:50:08.025Z,26.15
2022-12-03T23:52:35.428Z,25.98
2022-12-03T23:55:01.518Z,25.75
2022-12-03T23:57:27.360Z,23.63
2022-12-03T23:59:53.458Z,28.10
